createdAt,value
2019-05-13T00:02:04.868Z,7.87
2019-05-13T00:04:34.356Z,7.78
2019-05-13T00:07:04.766Z,7.80
2019-05-13T00:09:34.376Z,7.67
2019-05-13T00:12:04.623Z,7.57
2019-05-13T00:14:34.643Z,7.53
2019-05-13T00:17:04.515Z,7.58
2019-05-13T00:19:34.932Z,7.56
2019-05-13T00:22:05.913Z,7.57
2019-05-13T00:24:35.310Z,7.55
2019-05-13T00:27:05.090Z,7.51
2019-05-13T00:29:34.488Z,7.41
2019-05-13T00:32:04.847Z,7.37
2019-05-13T00:34:34.449Z,7.33
2019-05-13T00:37:11.311Z,7.24
2019-05-13T00:39:34.973Z,7.15
2019-05-13T00:42:04.554Z,7.13
2019-05-13T00:44:34.071Z,7.07
2019-05-13T00:47:04.455Z,7.19
2019-05-13T00:49:34.641Z,7.36
2019-05-13T00:52:04.467Z,7.43
2019-05-13T00:54:34.300Z,7.47
2019-05-13T00:57:04.518Z,7.52
2019-05-13T00:59:34.254Z,7.55
2019-05-13T01:02:04.121Z,7.60
2019-05-13T01:04:34.003Z,7.59
2019-05-13T01:07:04.428Z,7.59
2019-05-13T01:09:34.412Z,7.51
2019-05-13T01:12:04.501Z,7.42
2019-05-13T01:14:34.435Z,7.35
2019-05-13T01:17:04.208Z,7.33
2019-05-13T01:19:34.378Z,7.29
2019-05-13T01:22:04.315Z,7.29
2019-05-13T01:24:34.076Z,7.19
2019-05-13T01:27:04.319Z,7.04
2019-05-13T01:29:34.339Z,6.94
2019-05-13T01:32:04.687Z,6.85
2019-05-13T01:34:34.216Z,6.88
2019-05-13T01:37:04.385Z,6.87
2019-05-13T01:39:34.930Z,6.83
2019-05-13T01:42:04.938Z,6.78
2019-05-13T01:44:34.327Z,6.69
2019-05-13T01:47:04.549Z,6.64
2019-05-13T01:49:34.251Z,6.60
2019-05-13T01:52:04.148Z,6.56
2019-05-13T01:54:34.090Z,6.47
2019-05-13T01:57:04.626Z,6.43
2019-05-13T01:59:34.817Z,6.41
2019-05-13T02:02:05.166Z,6.34
2019-05-13T02:04:34.564Z,6.32
2019-05-13T02:07:04.443Z,6.27
2019-05-13T02:09:34.577Z,6.22
2019-05-13T02:12:04.790Z,6.18
2019-05-13T02:14:34.523Z,6.16
2019-05-13T02:17:04.453Z,6.12
2019-05-13T02:19:33.880Z,6.06
2019-05-13T02:22:04.152Z,6.08
2019-05-13T02:24:34.352Z,6.04
2019-05-13T02:27:04.217Z,6.04
2019-05-13T02:29:34.442Z,6.11
2019-05-13T02:32:04.066Z,6.15
2019-05-13T02:34:33.461Z,6.27
2019-05-13T02:37:03.559Z,6.37
2019-05-13T02:39:33.244Z,6.48
2019-05-13T02:42:03.868Z,6.52
2019-05-13T02:44:34.115Z,6.54
2019-05-13T02:47:03.920Z,6.58
2019-05-13T02:49:33.610Z,6.57
2019-05-13T02:52:03.405Z,6.58
2019-05-13T02:54:34.044Z,6.57
2019-05-13T02:57:04.314Z,6.49
2019-05-13T02:59:34.061Z,6.54
2019-05-13T03:02:04.453Z,6.54
2019-05-13T03:04:33.861Z,6.58
2019-05-13T03:07:03.408Z,6.59
2019-05-13T03:09:32.928Z,6.53
2019-05-13T03:12:04.078Z,6.48
2019-05-13T03:14:33.445Z,6.45
2019-05-13T03:17:07.473Z,6.46
2019-05-13T03:19:36.847Z,6.43
2019-05-13T03:22:06.258Z,6.38
2019-05-13T03:24:35.658Z,6.35
2019-05-13T03:27:05.065Z,6.40
2019-05-13T03:29:34.459Z,6.43
2019-05-13T03:32:06.643Z,6.44
2019-05-13T03:34:36.656Z,6.43
2019-05-13T03:37:08.071Z,6.43
2019-05-13T03:39:43.496Z,6.42
2019-05-13T03:42:13.705Z,6.38
2019-05-13T03:44:44.946Z,6.38
2019-05-13T03:47:15.122Z,6.33
2019-05-13T03:49:44.590Z,6.30
2019-05-13T03:52:13.973Z,6.27
2019-05-13T03:54:43.922Z,6.26
2019-05-13T03:57:13.574Z,6.28
2019-05-13T03:59:43.822Z,6.30
2019-05-13T04:02:13.552Z,6.31
2019-05-13T04:04:43.037Z,6.35
2019-05-13T04:07:13.365Z,6.35
2019-05-13T04:09:42.863Z,6.36
2019-05-13T04:12:13.464Z,6.35
2019-05-13T04:14:43.366Z,6.30
2019-05-13T04:17:12.920Z,6.33
2019-05-13T04:19:42.652Z,6.41
2019-05-13T04:22:13.021Z,6.48
2019-05-13T04:24:42.982Z,6.52
2019-05-13T04:27:13.392Z,6.57
2019-05-13T04:29:43.438Z,6.62
2019-05-13T04:32:13.354Z,6.67
2019-05-13T04:34:42.820Z,6.70
2019-05-13T04:37:13.377Z,6.77
2019-05-13T04:39:51.074Z,6.80
2019-05-13T04:42:14.171Z,6.89
2019-05-13T04:44:43.683Z,6.92
2019-05-13T04:47:13.112Z,6.97
2019-05-13T04:49:43.057Z,6.96
2019-05-13T04:52:13.398Z,7.05
2019-05-13T04:54:43.545Z,7.17
2019-05-13T04:57:13.503Z,7.19
2019-05-13T04:59:44.486Z,7.23
2019-05-13T05:02:46.050Z,7.27
2019-05-13T05:05:22.193Z,7.31
2019-05-13T05:08:28.087Z,7.45
2019-05-13T05:11:13.049Z,7.46
2019-05-13T05:14:02.735Z,7.53
2019-05-13T05:16:52.615Z,7.67
2019-05-13T05:19:52.480Z,7.76
2019-05-13T05:22:51.346Z,7.89
2019-05-13T05:25:32.818Z,8.10
2019-05-13T05:28:26.635Z,8.32
2019-05-13T05:31:05.235Z,8.53
2019-05-13T05:33:51.654Z,8.74
2019-05-13T05:36:41.492Z,8.95
2019-05-13T05:39:23.293Z,9.03
2019-05-13T05:41:55.018Z,9.14
2019-05-13T05:44:32.106Z,9.32
2019-05-13T05:47:03.034Z,9.45
2019-05-13T05:49:32.564Z,9.47
2019-05-13T05:52:05.021Z,9.53
2019-05-13T05:54:36.853Z,9.70
2019-05-13T05:57:07.909Z,9.77
2019-05-13T05:59:38.248Z,9.80
2019-05-13T06:02:11.922Z,9.93
2019-05-13T06:04:43.016Z,10.22
2019-05-13T06:07:12.863Z,10.30
2019-05-13T06:09:42.522Z,10.47
2019-05-13T06:12:13.074Z,10.65
2019-05-13T06:14:42.910Z,10.70
2019-05-13T06:17:12.327Z,10.82
2019-05-13T06:19:42.070Z,11.12
2019-05-13T06:22:12.322Z,11.26
2019-05-13T06:24:42.392Z,11.18
2019-05-13T06:27:12.009Z,11.52
2019-05-13T06:29:42.276Z,11.66
2019-05-13T06:32:21.446Z,11.59
2019-05-13T06:34:43.332Z,11.78
2019-05-13T06:37:12.766Z,11.96
2019-05-13T06:39:42.709Z,12.10
2019-05-13T06:42:12.134Z,12.07
2019-05-13T06:44:42.226Z,12.15
2019-05-13T06:47:11.810Z,12.36
2019-05-13T06:49:42.802Z,12.52
2019-05-13T06:52:12.437Z,12.34
2019-05-13T06:54:42.085Z,12.76
2019-05-13T06:57:13.458Z,13.07
2019-05-13T06:59:42.878Z,13.34
2019-05-13T07:02:12.587Z,13.41
2019-05-13T07:04:42.036Z,13.53
2019-05-13T07:07:16.226Z,14.12
2019-05-13T07:09:42.854Z,14.41
2019-05-13T07:12:12.201Z,13.62
2019-05-13T07:14:41.633Z,13.18
2019-05-13T07:17:12.353Z,13.06
2019-05-13T07:19:41.992Z,13.17
2019-05-13T07:22:11.874Z,13.00
2019-05-13T07:24:42.843Z,13.09
2019-05-13T07:27:12.459Z,13.09
2019-05-13T07:29:42.449Z,13.04
2019-05-13T07:32:12.211Z,12.81
2019-05-13T07:34:43.857Z,12.98
2019-05-13T07:37:12.897Z,13.07
2019-05-13T07:39:42.754Z,13.24
2019-05-13T07:42:13.775Z,13.50
2019-05-13T07:44:43.281Z,13.40
2019-05-13T07:47:15.679Z,13.66
2019-05-13T07:49:43.815Z,13.78
2019-05-13T07:52:13.211Z,14.27
2019-05-13T07:54:42.633Z,14.39
2019-05-13T07:57:12.367Z,14.50
2019-05-13T07:59:42.144Z,14.45
2019-05-13T08:02:12.384Z,14.57
2019-05-13T08:04:42.282Z,14.74
2019-05-13T08:07:12.201Z,14.78
2019-05-13T08:09:42.080Z,14.61
2019-05-13T08:12:14.319Z,14.84
2019-05-13T08:14:43.669Z,15.25
2019-05-13T08:17:13.459Z,15.51
2019-05-13T08:19:42.894Z,15.81
2019-05-13T08:22:12.314Z,15.93
2019-05-13T08:24:42.636Z,15.71
2019-05-13T08:27:12.168Z,16.04
2019-05-13T08:29:42.087Z,16.34
2019-05-13T08:32:11.673Z,16.35
2019-05-13T08:34:41.916Z,16.06
2019-05-13T08:37:11.598Z,15.91
2019-05-13T08:39:41.624Z,16.37
2019-05-13T08:42:16.008Z,17.04
2019-05-13T08:44:42.337Z,17.70
2019-05-13T08:47:12.184Z,18.22
2019-05-13T08:49:41.845Z,17.73
2019-05-13T08:52:12.278Z,18.02
2019-05-13T08:54:42.116Z,18.43
2019-05-13T08:57:11.947Z,19.32
2019-05-13T08:59:42.393Z,20.09
2019-05-13T09:02:12.173Z,20.75
2019-05-13T09:04:42.328Z,21.29
2019-05-13T09:07:12.257Z,21.83
2019-05-13T09:09:42.044Z,22.19
2019-05-13T09:12:13.200Z,22.20
2019-05-13T09:14:42.780Z,22.01
2019-05-13T09:17:12.276Z,21.60
2019-05-13T09:19:41.693Z,22.06
2019-05-13T09:22:12.391Z,22.37
2019-05-13T09:24:42.646Z,22.63
2019-05-13T09:27:12.334Z,23.55
2019-05-13T09:29:43.007Z,24.09
2019-05-13T09:32:12.482Z,24.72
2019-05-13T09:34:42.385Z,25.11
2019-05-13T09:37:12.337Z,25.86
2019-05-13T09:39:41.839Z,26.12
2019-05-13T09:42:12.752Z,26.27
2019-05-13T09:44:42.273Z,26.91
2019-05-13T09:47:12.472Z,26.86
2019-05-13T09:49:42.330Z,26.87
2019-05-13T09:52:12.122Z,26.86
2019-05-13T09:54:42.834Z,26.84
2019-05-13T09:57:12.655Z,26.27
2019-05-13T09:59:42.468Z,26.32
2019-05-13T10:02:12.604Z,27.36
2019-05-13T10:04:43.752Z,28.59
2019-05-13T10:07:13.564Z,29.04
2019-05-13T10:09:44.466Z,28.28
2019-05-13T10:12:14.075Z,27.46
2019-05-13T10:14:43.495Z,26.94
2019-05-13T10:17:13.385Z,26.85
2019-05-13T10:19:42.906Z,27.28
2019-05-13T10:22:12.449Z,26.76
2019-05-13T10:24:42.493Z,27.17
2019-05-13T10:27:12.674Z,27.94
2019-05-13T10:29:42.949Z,28.48
2019-05-13T10:32:12.756Z,29.11
2019-05-13T10:34:42.975Z,29.62
2019-05-13T10:37:12.542Z,29.22
2019-05-13T10:39:42.831Z,30.53
2019-05-13T10:42:12.409Z,31.15
2019-05-13T10:44:42.434Z,29.82
2019-05-13T10:47:12.305Z,29.23
2019-05-13T10:49:42.682Z,29.09
2019-05-13T10:52:12.422Z,29.40
2019-05-13T10:54:42.094Z,29.25
2019-05-13T10:57:13.562Z,30.12
2019-05-13T10:59:42.657Z,30.13
2019-05-13T11:02:13.284Z,30.07
2019-05-13T11:04:43.137Z,30.08
2019-05-13T11:07:12.635Z,29.84
2019-05-13T11:09:42.126Z,29.43
2019-05-13T11:12:12.468Z,29.96
2019-05-13T11:14:42.361Z,29.86
2019-05-13T11:17:12.937Z,29.24
2019-05-13T11:19:42.912Z,29.19
2019-05-13T11:22:12.505Z,29.11
2019-05-13T11:24:43.112Z,29.78
2019-05-13T11:27:12.905Z,29.43
2019-05-13T11:29:42.327Z,29.49
2019-05-13T11:32:13.311Z,28.81
2019-05-13T11:34:42.957Z,28.35
2019-05-13T11:37:12.585Z,28.52
2019-05-13T11:39:42.838Z,30.14
2019-05-13T11:42:13.678Z,30.91
2019-05-13T11:44:43.426Z,29.43
2019-05-13T11:47:13.012Z,30.64
2019-05-13T11:49:42.815Z,29.59
2019-05-13T11:52:12.310Z,30.00
2019-05-13T11:54:42.464Z,29.38
2019-05-13T11:57:12.597Z,28.79
2019-05-13T11:59:43.037Z,29.71
2019-05-13T12:02:13.749Z,30.15
2019-05-13T12:04:44.160Z,28.81
2019-05-13T12:07:13.905Z,28.60
2019-05-13T12:09:43.371Z,28.19
2019-05-13T12:12:13.916Z,28.71
2019-05-13T12:15:14.831Z,28.90
2019-05-13T12:17:14.777Z,27.96
2019-05-13T12:19:44.258Z,27.10
2019-05-13T12:22:13.705Z,27.01
2019-05-13T12:24:43.092Z,27.42
2019-05-13T12:27:12.581Z,26.64
2019-05-13T12:29:43.052Z,26.25
2019-05-13T12:32:13.835Z,24.83
2019-05-13T12:34:45.771Z,23.70
2019-05-13T12:37:14.532Z,23.70
2019-05-13T12:39:44.257Z,22.67
2019-05-13T12:42:13.695Z,22.02
2019-05-13T12:45:00.510Z,21.33
2019-05-13T12:47:14.211Z,20.97
2019-05-13T12:49:44.156Z,20.49
2019-05-13T12:52:13.634Z,20.22
2019-05-13T12:54:44.098Z,19.83
2019-05-13T12:57:16.123Z,19.80
2019-05-13T12:59:45.332Z,19.48
2019-05-13T13:02:14.858Z,19.38
2019-05-13T13:05:07.814Z,19.26
2019-05-13T13:07:15.427Z,19.16
2019-05-13T13:09:44.893Z,19.11
2019-05-13T13:12:14.309Z,19.28
2019-05-13T13:14:44.689Z,19.12
2019-05-13T13:17:14.266Z,19.19
2019-05-13T13:19:43.618Z,19.41
2019-05-13T13:24:51.523Z,19.27
2019-05-13T13:27:26.261Z,19.30
2019-05-13T13:29:58.954Z,19.06
2019-05-13T13:32:19.352Z,18.93
2019-05-13T13:34:48.760Z,18.97
2019-05-13T13:37:18.387Z,19.06
2019-05-13T13:39:47.872Z,18.83
2019-05-13T13:42:17.399Z,18.65
2019-05-13T13:44:46.822Z,18.76
2019-05-13T13:47:16.220Z,18.96
2019-05-13T13:49:45.663Z,19.28
2019-05-13T13:52:16.362Z,19.29
2019-05-13T13:54:45.876Z,18.86
2019-05-13T13:57:15.290Z,19.03
2019-05-13T14:00:15.040Z,18.91
2019-05-13T14:02:15.830Z,19.03
2019-05-13T14:04:45.247Z,19.15
2019-05-13T14:07:08.959Z,19.29
2019-05-13T14:07:22.822Z,19.08
2019-05-13T14:09:45.957Z,19.09
2019-05-13T14:12:15.354Z,18.86
2019-05-13T14:14:44.775Z,19.06
2019-05-13T14:17:14.176Z,18.81
2019-05-13T14:19:43.645Z,18.70
2019-05-13T14:22:13.042Z,18.84
2019-05-13T14:24:42.841Z,18.71
2019-05-13T14:27:12.418Z,18.74
2019-05-13T14:29:48.921Z,18.81
2019-05-13T14:32:13.007Z,18.97
2019-05-13T14:34:42.429Z,18.81
2019-05-13T14:37:12.019Z,18.75
2019-05-13T14:39:41.805Z,18.47
2019-05-13T14:42:11.815Z,18.39
2019-05-13T14:44:41.324Z,18.50
2019-05-13T14:47:12.489Z,18.48
2019-05-13T14:49:42.565Z,18.36
2019-05-13T14:52:12.162Z,18.40
2019-05-13T14:54:42.240Z,18.45
2019-05-13T14:57:14.788Z,18.59
2019-05-13T14:59:43.475Z,18.82
2019-05-13T15:02:12.877Z,18.63
2019-05-13T15:04:42.434Z,18.66
2019-05-13T15:07:12.516Z,18.77
2019-05-13T15:09:42.275Z,18.71
2019-05-13T15:12:11.710Z,18.81
2019-05-13T15:14:42.921Z,18.75
2019-05-13T15:17:13.007Z,18.67
2019-05-13T15:19:42.521Z,18.81
2019-05-13T15:22:15.724Z,18.37
2019-05-13T15:24:43.071Z,18.57
2019-05-13T15:27:12.474Z,18.69
2019-05-13T15:29:42.061Z,18.84
2019-05-13T15:32:11.477Z,18.88
2019-05-13T15:34:42.514Z,19.16
2019-05-13T15:37:12.091Z,19.11
2019-05-13T15:39:42.606Z,19.09
2019-05-13T15:42:12.218Z,18.98
2019-05-13T15:44:41.655Z,18.83
2019-05-13T15:47:22.806Z,18.75
2019-05-13T15:49:42.191Z,18.72
2019-05-13T15:52:12.058Z,18.83
2019-05-13T15:54:41.677Z,18.64
2019-05-13T15:57:11.884Z,18.54
2019-05-13T15:59:41.700Z,18.24
2019-05-13T16:02:11.873Z,18.24
2019-05-13T16:04:50.005Z,18.37
2019-05-13T16:07:12.730Z,18.40
2019-05-13T16:09:42.275Z,18.36
2019-05-13T16:12:12.302Z,18.13
2019-05-13T16:14:42.104Z,18.23
2019-05-13T16:17:12.350Z,18.04
2019-05-13T16:19:42.136Z,17.97
2019-05-13T16:22:12.029Z,17.82
2019-05-13T16:24:41.723Z,17.67
2019-05-13T16:27:11.937Z,17.53
2019-05-13T16:29:42.251Z,17.47
2019-05-13T16:32:12.166Z,17.52
2019-05-13T16:34:42.512Z,17.56
2019-05-13T16:37:12.029Z,17.44
2019-05-13T16:39:41.684Z,17.38
2019-05-13T16:42:11.857Z,17.35
2019-05-13T16:44:42.935Z,17.12
2019-05-13T16:47:12.600Z,17.08
2019-05-13T16:49:42.035Z,17.15
2019-05-13T16:52:11.831Z,17.01
2019-05-13T16:54:42.402Z,16.99
2019-05-13T16:57:12.291Z,16.96
2019-05-13T16:59:41.702Z,16.87
2019-05-13T17:02:12.614Z,16.87
2019-05-13T17:04:42.311Z,16.64
2019-05-13T17:07:11.705Z,16.57
2019-05-13T17:09:41.559Z,16.46
2019-05-13T17:12:13.879Z,16.37
2019-05-13T17:14:42.202Z,16.33
2019-05-13T17:17:12.017Z,16.47
2019-05-13T17:19:42.310Z,16.52
2019-05-13T17:22:11.890Z,16.43
2019-05-13T17:24:42.717Z,16.29
2019-05-13T17:27:12.332Z,16.24
2019-05-13T17:29:41.769Z,16.27
2019-05-13T17:32:11.779Z,16.22
2019-05-13T17:34:45.493Z,16.16
2019-05-13T17:37:12.577Z,16.09
2019-05-13T17:39:41.975Z,16.19
2019-05-13T17:42:12.257Z,16.18
2019-05-13T17:44:46.005Z,16.21
2019-05-13T17:47:13.696Z,16.15
2019-05-13T17:49:43.110Z,16.08
2019-05-13T17:52:12.599Z,15.94
2019-05-13T17:54:42.823Z,15.92
2019-05-13T17:57:12.549Z,15.89
2019-05-13T17:59:42.163Z,15.84
2019-05-13T18:02:12.017Z,15.75
2019-05-13T18:04:41.730Z,15.71
2019-05-13T18:07:12.205Z,15.59
2019-05-13T18:09:42.321Z,15.55
2019-05-13T18:12:12.039Z,15.48
2019-05-13T18:14:41.446Z,15.52
2019-05-13T18:17:12.535Z,15.56
2019-05-13T18:19:42.337Z,15.49
2019-05-13T18:22:11.853Z,15.50
2019-05-13T18:24:41.284Z,15.43
2019-05-13T18:29:41.962Z,15.33
2019-05-13T18:32:12.391Z,15.28
2019-05-13T18:34:42.015Z,15.12
2019-05-13T18:37:12.006Z,15.04
2019-05-13T18:39:41.802Z,15.06
2019-05-13T18:42:11.621Z,15.02
2019-05-13T18:44:42.172Z,14.95
2019-05-13T18:47:12.235Z,14.76
2019-05-13T18:49:42.459Z,14.67
2019-05-13T18:52:13.502Z,14.61
2019-05-13T18:54:42.979Z,14.51
2019-05-13T18:57:12.488Z,14.47
2019-05-13T18:59:41.904Z,14.37
2019-05-13T19:02:12.255Z,14.30
2019-05-13T19:04:42.071Z,14.24
2019-05-13T19:07:11.747Z,14.24
2019-05-13T19:09:41.788Z,14.19
2019-05-13T19:12:11.735Z,14.15
2019-05-13T19:14:41.369Z,14.13
2019-05-13T19:17:12.370Z,14.07
2019-05-13T19:19:42.275Z,13.95
2019-05-13T19:22:12.430Z,13.83
2019-05-13T19:24:41.851Z,13.76
2019-05-13T19:27:11.999Z,13.71
2019-05-13T19:29:42.443Z,13.67
2019-05-13T19:32:12.585Z,13.60
2019-05-13T19:34:42.510Z,13.58
2019-05-13T19:37:12.171Z,13.54
2019-05-13T19:39:41.569Z,13.55
2019-05-13T19:42:11.561Z,13.56
2019-05-13T19:44:42.027Z,13.47
2019-05-13T19:47:12.406Z,13.35
2019-05-13T19:49:46.312Z,13.35
2019-05-13T19:52:13.299Z,13.30
2019-05-13T19:54:42.716Z,13.28
2019-05-13T19:57:12.193Z,13.22
2019-05-13T19:59:42.624Z,13.16
2019-05-13T20:02:12.400Z,13.10
2019-05-13T20:04:41.928Z,13.10
2019-05-13T20:07:11.964Z,13.10
2019-05-13T20:09:42.557Z,13.14
2019-05-13T20:12:15.527Z,13.04
2019-05-13T20:14:43.370Z,12.96
2019-05-13T20:17:12.813Z,12.87
2019-05-13T20:19:50.306Z,12.83
2019-05-13T20:22:13.458Z,12.74
2019-05-13T20:24:42.824Z,12.69
2019-05-13T20:27:13.183Z,12.59
2019-05-13T20:29:44.256Z,12.60
2019-05-13T20:32:13.690Z,12.52
2019-05-13T20:34:43.155Z,12.50
2019-05-13T20:37:12.630Z,12.40
2019-05-13T20:39:42.539Z,12.36
2019-05-13T20:42:12.613Z,12.34
2019-05-13T20:44:42.164Z,12.18
2019-05-13T20:47:11.588Z,12.04
2019-05-13T20:49:41.753Z,11.85
2019-05-13T20:52:14.687Z,11.76
2019-05-13T20:54:42.608Z,11.62
2019-05-13T20:57:12.032Z,11.40
2019-05-13T20:59:41.589Z,11.28
2019-05-13T21:02:12.388Z,11.18
2019-05-13T21:04:42.004Z,11.06
2019-05-13T21:07:11.428Z,10.94
2019-05-13T21:09:42.316Z,10.93
2019-05-13T21:12:12.206Z,10.85
2019-05-13T21:14:41.769Z,10.81
2019-05-13T21:17:12.195Z,10.77
2019-05-13T21:19:42.900Z,10.70
2019-05-13T21:22:12.501Z,10.63
2019-05-13T21:24:41.905Z,10.56
2019-05-13T21:27:12.012Z,10.60
2019-05-13T21:29:41.654Z,10.59
2019-05-13T21:32:11.838Z,10.56
2019-05-13T21:34:41.293Z,10.42
2019-05-13T21:37:11.542Z,10.36
2019-05-13T21:39:41.359Z,10.28
2019-05-13T21:42:11.462Z,10.35
2019-05-13T21:44:42.035Z,10.25
2019-05-13T21:47:11.582Z,10.26
2019-05-13T21:49:42.369Z,10.28
2019-05-13T21:52:11.892Z,10.35
2019-05-13T21:54:42.215Z,10.36
2019-05-13T21:57:11.693Z,10.34
2019-05-13T21:59:41.506Z,10.23
2019-05-13T22:02:11.377Z,10.09
2019-05-13T22:04:41.362Z,9.90
2019-05-13T22:07:12.145Z,9.79
2019-05-13T22:09:42.337Z,9.64
2019-05-13T22:12:11.791Z,9.58
2019-05-13T22:14:41.384Z,9.52
2019-05-13T22:17:12.294Z,9.45
2019-05-13T22:19:42.137Z,9.38
2019-05-13T22:22:11.913Z,9.30
2019-05-13T22:24:41.941Z,9.25
2019-05-13T22:27:13.286Z,9.22
2019-05-13T22:29:42.556Z,9.14
2019-05-13T22:32:12.042Z,9.08
2019-05-13T22:34:42.091Z,9.06
2019-05-13T22:37:11.804Z,9.09
2019-05-13T22:39:42.171Z,9.20
2019-05-13T22:42:12.506Z,9.32
2019-05-13T22:44:42.059Z,9.43
2019-05-13T22:47:13.447Z,9.42
2019-05-13T22:49:42.637Z,9.42
2019-05-13T22:52:12.055Z,9.41
2019-05-13T22:54:41.446Z,9.41
2019-05-13T22:57:11.995Z,9.33
2019-05-13T22:59:41.776Z,9.36
2019-05-13T23:02:11.134Z,9.28
2019-05-13T23:04:41.853Z,9.28
2019-05-13T23:07:11.904Z,9.24
2019-05-13T23:09:41.719Z,9.27
2019-05-13T23:12:12.273Z,9.40
2019-05-13T23:14:41.807Z,9.41
2019-05-13T23:17:12.510Z,9.40
2019-05-13T23:19:42.083Z,9.39
2019-05-13T23:22:12.096Z,9.37
2019-05-13T23:24:41.932Z,9.38
2019-05-13T23:27:11.318Z,9.37
2019-05-13T23:29:41.355Z,9.35
2019-05-13T23:32:12.096Z,9.35
2019-05-13T23:34:42.239Z,9.37
2019-05-13T23:37:11.899Z,9.36
2019-05-13T23:39:41.787Z,9.37
2019-05-13T23:42:12.180Z,9.36
2019-05-13T23:44:41.978Z,9.38
2019-05-13T23:47:11.706Z,9.30
2019-05-13T23:49:42.111Z,9.29
2019-05-13T23:52:11.957Z,9.20
2019-05-13T23:54:42.390Z,9.15
2019-05-13T23:57:12.178Z,9.17
2019-05-13T23:59:42.147Z,9.13
